Aeroporto :
LOGIN :

Iscrizione | Disclaimer

   EN    FR    IT 

 










Sommario :    VFR   VFR Marginale   IFR   IFR Intensivo   IFR Molto Intensivo
Visibilità : 
Base nubi : 
>= 8 km
>= 3000ft
5 / 8 km
1000 / 3000 ft
1500m / 5 km
500 / 1000 ft
800 / 1500m
200 / 500 ft
< 800m
< 200 ft
Simboli :   Temporali  Nebbia  Neve Forte  Precipitazioni Forti  Vento > 20 kt
SIGMETs :   Varie  Temporali  Ghiacco  Turbolenza  Onda orograficha  Ceneri Vulcaniche






- Altitudine del aeroporto : 122 ft
- Codice IATA : TXL


EDDT - Berlin Tegel Int.

ULTIMO METAR :
  • 280020Z 30003KT CAVOK 02/M00 Q1003

METARs OBSOLETI :
  • 272350Z 31002KT CAVOK 02/00 Q1003
  • 272320Z 32003KT 280V350 9999 FEW038 02/M00 Q1002
  • 272250Z 32005KT CAVOK 02/M00 Q1001
  • 272220Z 31002KT 9999 FEW033 03/M00 Q1001 NOSIG
  • 272150Z VRB01KT 9999 FEW033 03/M00 Q1000 NOSIG

TAF TAF EDDT
Valido dal 28 a 00 ore il 29 a 00 ore UTC


272300Z 2800/2824 34004KT 9999 SCT030
BECMG 2801/2804 28007KT
TEMPO 2804/2809 2500 -SNRA BKN008
BECMG 2807/2810 27015G25KT
BECMG 2815/2818 21008KT



MetMap, La meteo Aeronautica in un colpo d'occhio ! - Copyright ORBIFLY Dicembre 2007 - Disclaimer

ORBIFLY MET'MAP TEAM :

Programmazione e sviluppo : Alexandra Zaïnal
Concezione : Baudouin d'Aumeries
Aiuto per la programmazione : Marc-Olivier Méhu
Supporto tecnico e logistico : Manuel Goepfert
Aiuto per la traduzione : Arnaldo La Scala

Contatto : metmap@orbifly.com




FONTI E CREDITI :

   NOAA